Latest Weather Observations for Narrabri

IDN60801

Issued at 8:05 am EDT Tuesday 25 November 2014 (issued every 30 minutes, with the page automatically refreshed every 10 minutes)

About weather observations | Map of weather stations | Latest weather observations for NSW | Other Formats
Station Details ID: 054038 Name: NARRABRI AIRPORT AWS Lat: -30.32 Lon: 149.83 Height: 229.02 m
Data from the previous 72 hours. | See also: Recent months at Narrabri
Date/Time
EDT
Temp
°C
App
Temp
°C
Dew
Point
Rel
Hum
%
Delta-T
°C
Wind Press
QNH
hPa
Press
MSL
hPa
Rain
since 9 am
mm
Dir
 
Spd
km/h
Gust
km/h
Spd
kts
Gust
kts
25/08:00am 22.7 23.9 19.1 80 2.3 SSW 11 13 6 7 1015.2 1014.1 7.0
25/07:30am 22.9 23.9 19.5 81 2.2 S 13 19 7 10 1014.9 1013.8 7.0
25/07:00am 23.1 25.4 19.9 82 2.1 S 7 13 4 7 1014.5 1013.4 7.0
25/06:30am 22.7 25.9 21.7 94 0.7 SSE 7 7 4 4 1014.1 1013.0 7.0
25/06:00am 22.5 25.8 21.8 96 0.5 SSE 7 11 4 6 1013.6 1012.5 7.0
25/05:30am 22.4 26.2 21.6 95 0.5 SSW 4 7 2 4 1013.6 1012.5 7.0
25/05:00am 22.8 26.0 20.5 87 1.5 SSE 4 6 2 3 1013.0 1011.9 7.0
25/04:30am 23.2 24.4 19.1 78 2.6 SE 11 13 6 7 1012.5 1011.4 7.0
25/04:00am 22.9 24.9 19.9 83 1.9 S 9 13 5 7 1012.6 1011.5 7.0
25/03:30am 23.1 25.3 20.4 85 1.8 SE 9 13 5 7 1012.5 1011.4 7.0
25/03:00am 22.6 25.0 20.9 90 1.1 ENE 9 11 5 6 1012.4 1011.3 7.0
25/02:30am 23.5 24.7 19.0 76 2.9 ESE 11 15 6 8 1012.5 1011.4 7.0
25/02:00am 23.7 24.8 19.6 78 2.7 SE 13 17 7 9 1013.2 1012.1 7.0
25/01:30am 23.5 25.5 20.0 81 2.3 SSE 9 17 5 9 1013.5 1012.4 7.0
25/01:00am 23.6 25.5 20.5 83 2.0 SE 11 13 6 7 1013.9 1012.8 7.0
25/12:30am 23.1 26.3 21.7 92 0.9 SE 7 11 4 6 1013.8 1012.7 7.0
25/12:00am 22.9 - - - - SE 6 13 3 7 1013.8 1012.7 7.0
 
Date/Time
EDT
Temp
°C
App
Temp
°C
Dew
Point
Rel
Hum
%
Delta-T
°C
Wind Press
QNH
hPa
Press
MSL
hPa
Rain
since 9 am
mm
Dir
 
Spd
km/h
Gust
km/h
Spd
kts
Gust
kts
24/11:30pm 23.1 27.2 22.9 99 0.1 WSW 6 9 3 5 1014.2 1013.1 7.0
24/11:00pm 23.2 26.8 23.0 99 0.1 ENE 9 11 5 6 1013.8 1012.7 7.0
24/10:30pm 23.0 26.7 22.5 97 0.3 SSW 7 15 4 8 1013.6 1012.5 7.0
24/10:00pm 23.4 27.0 22.4 94 0.7 NNE 7 13 4 7 1013.6 1012.5 7.0
24/09:30pm 22.8 23.6 21.4 92 0.9 E 19 24 10 13 1012.2 1011.1 7.0
24/09:00pm 22.2 23.2 21.7 97 0.3 E 19 24 10 13 1012.0 1010.9 7.0
24/08:30pm 23.5 25.6 21.0 86 1.7 ENE 11 17 6 9 1013.1 1012.0 2.2
24/08:00pm 25.8 27.3 19.0 66 4.4 ENE 9 13 5 7 1012.6 1011.5 0.0
24/07:30pm 27.6 26.3 17.2 53 6.6 WSW 20 30 11 16 1011.8 1010.7 0.0
24/07:00pm 29.4 24.8 16.2 44 8.3 W 35 57 19 31 1010.9 1009.8 0.0
24/06:56pm 30.5 26.7 15.8 41 9.2 WSW 30 50 16 27 1010.4 1009.3 0.0
24/06:45pm 30.9 26.1 14.1 36 10.3 SW 32 44 17 24 1009.8 1008.7 0.0
24/06:30pm 30.8 28.5 14.0 36 10.2 W 19 26 10 14 1008.7 1007.6 0.0
24/06:00pm 32.4 28.0 14.1 33 11.3 W 30 43 16 23 1008.5 1007.4 0.0
24/05:48pm 33.7 29.7 14.2 30 12.1 W 28 48 15 26 1008.5 1007.4 0.0
24/05:30pm 35.1 31.0 13.8 27 13.2 WNW 28 37 15 20 1008.0 1006.9 0.0
24/05:00pm 36.9 31.8 13.6 24 14.5 NNW 33 46 18 25 1007.5 1006.3 0.0
24/04:30pm 37.8 32.7 13.1 23 15.2 N 32 43 17 23 1007.7 1006.6 0.0
24/04:00pm 37.6 32.4 12.9 23 15.2 N 32 50 17 27 1007.9 1006.8 0.0
24/03:30pm 39.8 34.2 13.3 20 16.5 N 35 54 19 29 1008.3 1007.2 0.0
24/03:00pm 39.5 34.4 13.8 22 16.1 N 33 50 18 27 1009.1 1008.0 0.0
24/02:30pm 38.8 33.2 13.2 21 15.9 N 35 48 19 26 1009.9 1008.8 0.0
24/02:00pm 38.4 33.7 14.2 23 15.2 NNW 32 44 17 24 1010.8 1009.7 0.0
24/01:30pm 38.1 32.0 14.0 24 15.1 NNW 39 52 21 28 1011.3 1010.2 0.0
24/01:18pm 38.6 33.0 14.4 24 15.3 N 37 56 20 30 1011.3 1010.2 0.0
24/01:00pm 37.8 31.9 15.6 27 14.2 N 41 54 22 29 1011.8 1010.7 0.0
24/12:31pm 37.8 31.5 15.6 27 14.2 N 43 61 23 33 1012.1 1011.0 0.0
24/12:30pm 38.3 31.9 16.0 27 14.3 N 44 61 24 33 1012.2 1011.1 0.0
24/12:02pm 35.0 29.7 16.3 32 12.0 N 39 57 21 31 1012.4 1011.3 0.0
24/12:00pm 35.0 29.3 16.3 32 12.0 N 41 57 22 31 1012.5 1011.4 0.0
24/11:30am 35.9 30.3 16.6 31 12.4 N 41 52 22 28 1012.8 1011.7 0.0
24/11:00am 34.9 29.6 16.2 32 11.9 N 39 52 21 28 1013.1 1012.0 0.0
24/10:30am 34.4 29.6 16.7 34 11.4 N 37 48 20 26 1013.2 1012.1 0.0
24/10:00am 33.7 28.7 17.0 37 10.7 N 39 48 21 26 1013.6 1012.5 0.0
24/09:30am 32.7 27.9 16.5 37 10.3 N 37 48 20 26 1013.6 1012.5 0.0
24/09:00am 31.5 26.2 16.3 40 9.6 NNE 39 52 21 28 1013.5 1012.4 4.6
24/08:30am 31.2 26.8 15.2 38 9.9 N 32 39 17 21 1013.8 1012.7 4.6
24/08:00am 29.8 28.4 16.6 45 8.3 NNE 19 24 10 13 1013.7 1012.6 4.6
24/07:30am 25.1 26.6 19.7 72 3.5 NE 11 13 6 7 1013.6 1012.5 4.6
24/07:00am 24.4 25.2 18.1 68 4.0 ENE 11 15 6 8 1013.5 1012.4 4.6
24/06:30am 23.2 24.2 19.4 79 2.4 ENE 13 19 7 10 1013.1 1012.0 4.6
24/06:00am 22.9 21.6 19.1 79 2.4 E 24 32 13 17 1012.8 1011.7 4.4
24/05:30am 23.4 22.2 19.3 78 2.6 E 24 28 13 15 1013.5 1012.4 4.2
24/05:00am 23.3 24.6 20.2 83 2.0 NNE 13 17 7 9 1015.1 1014.0 4.0
24/04:30am 24.9 26.0 18.1 66 4.3 NNE 9 13 5 7 1014.9 1013.8 3.6
24/04:00am 26.6 27.6 16.8 55 6.1 ESE 7 17 4 9 1014.7 1013.6 3.6
24/03:30am 27.5 27.1 15.2 47 7.5 WSW 11 19 6 10 1014.4 1013.3 3.6
24/03:00am 26.8 26.4 16.1 52 6.6 WSW 13 19 7 10 1013.8 1012.7 3.6
24/02:30am 26.9 28.5 15.9 51 6.8 WNW 2 9 1 5 1013.6 1012.5 3.6
24/02:14am 26.6 23.4 16.2 52 6.5 WSW 28 46 15 25 1013.9 1012.8 3.6
24/02:10am 25.7 22.1 16.3 56 5.8 WSW 30 44 16 24 1013.7 1012.6 3.6
24/02:00am 26.0 26.6 16.8 57 5.8 S 9 17 5 9 1013.5 1012.4 3.6
24/01:30am 26.6 24.9 16.2 52 6.5 NNE 20 32 11 17 1012.8 1011.7 3.6
24/01:00am 24.3 23.6 18.2 68 3.9 NNE 19 22 10 12 1013.3 1012.2 3.6
24/12:30am 24.3 25.1 18.2 68 3.9 NNE 11 17 6 9 1013.7 1012.6 3.6
24/12:00am 24.5 21.9 17.7 66 4.3 ENE 28 37 15 20 1014.0 1012.9 3.4
 
Date/Time
EDT
Temp
°C
App
Temp
°C
Dew
Point
Rel
Hum
%
Delta-T
°C
Wind Press
QNH
hPa
Press
MSL
hPa
Rain
since 9 am
mm
Dir
 
Spd
km/h
Gust
km/h
Spd
kts
Gust
kts
23/11:48pm 24.8 20.6 18.0 66 4.3 NNE 37 57 20 31 1014.3 1013.2 3.4
23/11:41pm 23.8 20.7 16.6 64 4.5 NNE 28 43 15 23 1015.0 1013.9 1.8
23/11:30pm 27.6 25.7 15.3 47 7.6 NE 19 22 10 12 1014.4 1013.3 0.0
23/11:00pm 26.7 25.0 16.3 53 6.5 E 20 28 11 15 1014.2 1013.1 0.0
23/10:33pm 28.0 23.8 15.6 46 7.7 E 32 50 17 27 1013.8 1012.7 0.0
23/10:30pm 28.2 23.4 15.5 46 7.8 E 35 50 19 27 1013.9 1012.8 0.0
23/10:19pm 28.3 24.1 15.6 46 7.9 E 32 54 17 29 1014.0 1012.9 0.0
23/10:14pm 27.9 24.5 15.9 48 7.5 E 28 43 15 23 1014.2 1013.1 0.0
23/10:00pm 27.1 25.6 16.4 52 6.7 E 19 24 10 13 1014.3 1013.2 0.0
23/09:47pm 28.5 24.7 14.7 43 8.4 NE 28 48 15 26 1014.3 1013.2 0.0
23/09:30pm 29.4 24.6 14.0 39 9.3 ENE 32 46 17 25 1013.7 1012.6 0.0
23/09:08pm 31.8 26.3 12.6 31 11.5 NE 33 52 18 28 1012.7 1011.6 0.0
23/09:00pm 31.8 27.1 13.1 32 11.3 NE 30 41 16 22 1012.4 1011.3 0.0
23/08:30pm 31.6 26.7 14.3 35 10.6 ENE 33 46 18 25 1012.0 1010.9 0.0
23/08:21pm 32.7 27.1 13.4 31 11.7 ENE 35 44 19 24 1011.8 1010.7 0.0
23/08:11pm 34.1 26.0 11.9 26 13.3 NE 46 76 25 41 1011.0 1009.9 0.0
23/08:09pm 35.0 28.4 11.4 24 14.1 NE 37 56 20 30 1011.4 1010.4 0.0
23/08:00pm 36.0 31.7 9.5 20 15.4 SSE 22 32 12 17 1010.2 1009.1 0.0
23/07:30pm 37.4 34.1 8.2 17 16.8 SSE 15 28 8 15 1009.6 1008.5 0.0
23/07:00pm 39.6 37.0 6.1 13 18.9 N 9 15 5 8 1008.9 1007.8 0.0
23/06:30pm 41.0 37.0 4.7 11 20.1 NNE 15 20 8 11 1008.4 1007.3 0.0
23/06:00pm 41.4 37.8 5.0 11 20.3 N 13 20 7 11 1008.1 1007.0 0.0
23/05:30pm 41.8 36.9 5.3 11 20.5 N 20 24 11 13 1008.1 1007.0 0.0
23/05:00pm 41.8 37.6 4.0 10 20.9 W 15 20 8 11 1008.3 1007.2 0.0
23/04:30pm 43.0 39.8 4.9 10 21.4 NW 11 17 6 9 1008.7 1007.6 0.0
23/04:00pm 43.1 39.8 6.3 11 21.1 W 13 19 7 10 1009.4 1008.3 0.0
23/03:30pm 41.9 39.2 5.4 11 20.5 S 9 15 5 8 1009.9 1008.8 0.0
23/03:00pm 42.8 38.9 7.3 12 20.6 WNW 17 24 9 13 1010.1 1009.0 0.0
23/02:30pm 41.3 37.4 8.5 14 19.2 N 19 43 10 23 1010.7 1009.6 0.0
23/02:00pm 40.8 38.1 9.1 15 18.7 N 13 26 7 14 1011.3 1010.2 0.0
23/01:30pm 41.0 37.3 12.8 19 17.5 N 24 28 13 15 1012.0 1010.9 0.0
23/01:00pm 40.7 36.7 14.1 21 16.8 NNW 28 33 15 18 1012.4 1011.3 0.0
23/12:30pm 40.6 37.0 17.3 25 15.4 N 32 48 17 26 1012.8 1011.7 0.0
23/12:00pm 38.7 34.2 16.3 26 14.5 N 35 46 19 25 1013.3 1012.2 0.0
23/11:30am 38.0 34.5 17.4 29 13.5 N 32 44 17 24 1013.5 1012.4 0.0
23/11:00am 37.1 33.7 17.6 31 12.8 N 32 43 17 23 1013.8 1012.7 0.0
23/10:30am 35.7 32.2 17.4 33 11.9 N 32 44 17 24 1014.0 1012.9 0.0
23/10:00am 34.8 30.8 17.5 35 11.2 N 35 50 19 27 1013.9 1012.8 0.0
23/09:30am 34.3 30.3 17.5 36 10.9 N 35 48 19 26 1013.8 1012.7 0.0
23/09:00am 33.6 29.1 17.3 37 10.5 N 37 50 20 27 1013.6 1012.5 0.0
23/08:30am 33.7 30.0 17.4 37 10.5 N 33 50 18 27 1013.7 1012.6 0.0
23/08:00am 33.0 28.8 17.2 39 10.2 N 35 48 19 26 1013.4 1012.3 0.0
23/07:30am 32.4 28.6 16.7 39 10.0 NNE 32 43 17 23 1013.2 1012.1 0.0
23/07:00am 31.9 28.3 16.2 38 9.9 NNE 30 39 16 21 1012.7 1011.6 0.0
23/06:30am 31.2 27.9 16.0 40 9.6 NNE 28 35 15 19 1012.2 1011.1 0.0
23/06:00am 30.3 27.8 15.2 40 9.4 NNE 22 30 12 16 1011.8 1010.7 0.0
23/05:30am 27.7 26.0 13.6 42 8.4 NE 15 19 8 10 1011.4 1010.4 0.0
23/05:00am 27.5 24.9 10.7 35 9.6 NE 15 19 8 10 1011.1 1010.0 0.0
23/04:30am 29.3 26.0 9.4 29 11.2 NNE 17 22 9 12 1010.8 1009.7 0.0
23/04:00am 28.1 23.1 3.7 21 12.4 NE 19 28 10 15 1010.7 1009.6 0.0
23/03:54am 28.5 23.5 4.7 22 12.3 NE 20 28 11 15 1010.7 1009.6 0.0
23/03:30am 23.2 19.9 4.7 30 9.3 E 11 13 6 7 1010.9 1009.8 0.0
23/03:00am 23.4 20.9 4.9 30 9.3 E 7 13 4 7 1010.4 1009.3 0.0
23/02:30am 22.8 20.9 4.8 31 9.0 SE 4 9 2 5 1010.7 1009.6 0.0
23/02:00am 22.7 21.4 4.2 30 9.2 CALM 0 0 0 0 1010.8 1009.7 0.0
23/01:30am 24.2 21.7 4.6 28 9.9 S 7 9 4 5 1011.0 1009.9 0.0
23/01:00am 25.6 22.1 3.5 24 11.0 ESE 11 19 6 10 1011.2 1010.1 0.0
23/12:30am 27.1 22.6 4.2 23 11.7 E 17 19 9 10 1011.2 1010.1 0.0
23/12:00am 27.0 22.5 4.1 23 11.6 E 17 20 9 11 1011.5 1010.5 0.0
 
Date/Time
EDT
Temp
°C
App
Temp
°C
Dew
Point
Rel
Hum
%
Delta-T
°C
Wind Press
QNH
hPa
Press
MSL
hPa
Rain
since 9 am
mm
Dir
 
Spd
km/h
Gust
km/h
Spd
kts
Gust
kts
22/11:30pm 29.0 24.8 3.8 20 12.9 E 15 17 8 9 1011.4 1010.4 0.0
22/11:00pm 27.8 24.8 4.2 22 12.1 ENE 9 11 5 6 1011.4 1010.4 0.0
22/10:30pm 27.0 24.3 3.5 22 11.8 E 7 9 4 5 1011.3 1010.2 0.0
22/10:00pm 30.4 26.5 3.4 18 13.9 E 13 15 7 8 1011.0 1009.9 0.0
22/09:30pm 27.8 25.9 2.8 20 12.5 NNE 2 11 1 6 1010.6 1009.5 0.0
22/09:00pm 32.3 30.7 2.4 15 15.3 CALM 0 0 0 0 1010.2 1009.1 0.0
22/08:30pm 32.8 30.7 1.8 14 15.7 N 2 6 1 3 1009.8 1008.7 0.0
22/08:00pm 34.1 31.1 0.7 12 16.8 NW 6 9 3 5 1009.5 1008.4 0.0
22/07:30pm 37.3 33.1 -0.9 9 19.1 NW 11 17 6 9 1009.2 1008.1 0.0
22/07:00pm 39.4 35.6 -0.9 8 20.4 W 9 15 5 8 1008.8 1007.7 0.0
22/06:30pm 40.2 35.1 -2.1 7 21.1 W 15 22 8 12 1008.5 1007.4 0.0
22/06:00pm 40.3 35.2 -2.1 7 21.2 NW 15 20 8 11 1008.4 1007.3 0.0
22/05:30pm 41.0 35.0 -1.6 7 21.5 WSW 20 24 11 13 1008.2 1007.1 0.0
22/05:00pm 41.5 36.1 -1.2 7 21.8 NNW 17 24 9 13 1008.3 1007.2 0.0
22/04:30pm 41.0 35.8 0.3 8 21.1 NW 17 26 9 14 1008.5 1007.4 0.0
22/04:00pm 40.7 34.5 0.0 8 21.0 NNW 22 28 12 15 1008.7 1007.6 0.0
22/03:30pm 41.2 37.7 3.5 10 20.5 NNW 11 17 6 9 1009.0 1007.9 0.0
22/03:00pm 41.2 36.2 3.5 10 20.6 WNW 19 32 10 17 1009.4 1008.3 0.0
22/02:30pm 40.0 36.1 5.2 12 19.3 WNW 15 28 8 15 1009.8 1008.7 0.0
22/02:00pm 39.6 35.3 7.1 14 18.6 N 19 32 10 17 1010.2 1009.1 0.0
22/01:30pm 38.7 34.8 5.4 13 18.4 NNW 15 20 8 11 1010.6 1009.5 0.0
22/01:00pm 38.5 35.4 7.3 15 17.8 WNW 13 22 7 12 1011.0 1009.9 0.0
22/12:30pm 38.4 35.0 9.0 17 17.2 N 17 28 9 15 1011.4 1010.4 0.0
22/12:00pm 38.8 33.1 6.5 14 18.2 N 26 35 14 19 1011.8 1010.7 0.0
22/11:30am 38.6 33.7 8.3 16 17.5 NNW 24 30 13 16 1012.3 1011.2 0.0
22/11:00am 37.1 34.1 11.8 22 15.3 N 19 33 10 18 1012.3 1011.2 0.0
22/10:30am 36.3 33.9 12.5 24 14.5 N 17 28 9 15 1012.6 1011.5 0.0
22/10:00am 34.4 32.5 14.3 30 12.5 N 17 24 9 13 1012.8 1011.7 0.0
22/09:30am 33.5 32.6 10.8 25 13.3 NW 6 15 3 8 1013.0 1011.9 0.0
22/09:00am 32.0 30.4 6.2 20 14.0 SE 4 9 2 5 1013.1 1012.0 0.0
22/08:30am 30.3 28.1 6.2 22 12.9 SSE 7 11 4 6 1013.0 1011.9 0.0

Other Formats:

Comma delimited format used in spreadsheet applications
http://www.bom.gov.au/fwo/IDN60801/IDN60801.95734.axf

JavaScript Object Notation format (JSON) in row-major order
http://www.bom.gov.au/fwo/IDN60801/IDN60801.95734.json